Time;durP1;ratioP1;P1;durP2;ratioP2;P2;SDS_P1;SDS_P2;PMS_P1;PMS_P2;Temp;Humidity;BMP_temperature;BMP_pressure;BME280_temperature;BME280_humidity;BME280_pressure;Samples;Min_cycle;Max_cycle;Signal;HPM_P1;HPM_P2
2022/04/07 00:00:49;;;;;;;10.93;3.97;;;11.80;97.60;;;;;;5051090;28;20029;-72
2022/04/07 00:03:15;;;;;;;7.40;4.47;;;11.80;97.50;;;;;;5051098;28;20033;-71
2022/04/07 00:05:41;;;;;;;9.13;4.20;;;11.70;97.50;;;;;;5050930;28;20052;-72
2022/04/07 00:08:07;;;;;;;7.32;3.72;;;11.80;97.30;;;;;;5049815;28;20473;-72
2022/04/07 00:10:34;;;;;;;7.32;4.07;;;11.80;97.40;;;;;;5051297;28;20074;-73
2022/04/07 00:13:00;;;;;;;6.57;4.43;;;11.80;97.20;;;;;;5049793;28;20036;-72
2022/04/07 00:15:26;;;;;;;9.52;4.22;;;11.70;97.10;;;;;;5050897;28;20582;-73
2022/04/07 00:17:52;;;;;;;11.10;4.28;;;11.80;97.10;;;;;;5049832;28;20037;-73
2022/04/07 00:20:18;;;;;;;7.82;4.15;;;11.70;97.00;;;;;;5051054;28;20029;-73
2022/04/07 00:22:44;;;;;;;8.15;4.20;;;11.80;97.00;;;;;;5049900;28;20045;-70
2022/04/07 00:25:10;;;;;;;7.60;4.20;;;11.70;96.80;;;;;;5050444;28;20067;-73
2022/04/07 00:27:36;;;;;;;6.82;4.38;;;11.70;96.80;;;;;;5050740;28;20410;-73
2022/04/07 00:30:03;;;;;;;7.93;3.67;;;11.80;96.60;;;;;;5050667;28;20060;-72
2022/04/07 00:32:29;;;;;;;6.80;3.60;;;11.70;96.50;;;;;;5050813;28;20032;-72
2022/04/07 00:34:54;;;;;;;9.82;4.15;;;11.70;96.50;;;;;;5050582;28;20025;-72
2022/04/07 00:37:24;;;;;;;5.82;4.32;;;11.70;96.60;;;;;;5050021;28;20021;-72
2022/04/07 00:39:50;;;;;;;7.53;3.60;;;11.70;96.60;;;;;;5050970;28;20043;-72
2022/04/07 00:42:16;;;;;;;11.07;4.13;;;11.70;96.40;;;;;;5050759;28;20057;-71
2022/04/07 00:44:43;;;;;;;5.03;3.20;;;11.70;96.40;;;;;;5050640;28;20482;-70
2022/04/07 00:47:09;;;;;;;8.98;4.07;;;11.70;96.40;;;;;;5050461;28;20470;-71
2022/04/07 00:49:35;;;;;;;11.65;3.60;;;11.70;96.40;;;;;;5050926;28;20029;-71
2022/04/07 00:52:00;;;;;;;7.78;3.53;;;11.70;96.40;;;;;;5050907;28;20473;-71
2022/04/07 00:54:26;;;;;;;9.23;4.15;;;11.70;96.40;;;;;;5050701;28;20029;-71
2022/04/07 00:56:54;;;;;;;7.85;3.85;;;11.70;96.30;;;;;;5050782;28;20079;-72
2022/04/07 00:59:22;;;;;;;8.15;3.50;;;11.70;96.30;;;;;;5050746;28;20036;-72
2022/04/07 01:01:48;;;;;;;4.95;3.85;;;11.70;96.20;;;;;;5050356;28;20635;-72
2022/04/07 01:04:14;;;;;;;7.53;3.70;;;11.70;96.00;;;;;;5051278;28;20473;-72
2022/04/07 01:06:41;;;;;;;8.65;3.67;;;11.70;96.00;;;;;;5050288;28;20033;-72
2022/04/07 01:09:08;;;;;;;9.50;3.75;;;11.80;96.10;;;;;;5050489;28;20029;-72
2022/04/07 01:11:34;;;;;;;6.15;3.30;;;11.80;95.90;;;;;;5050323;28;20048;-73
2022/04/07 01:14:00;;;;;;;5.45;2.80;;;11.80;95.80;;;;;;5050556;28;20358;-72
2022/04/07 01:16:28;;;;;;;7.65;3.70;;;11.80;96.00;;;;;;5051193;28;20036;-72
2022/04/07 01:18:56;;;;;;;8.48;3.92;;;11.80;96.30;;;;;;5050581;28;20077;-71
2022/04/07 01:21:21;;;;;;;6.78;3.50;;;11.80;96.50;;;;;;5050214;28;20040;-72
2022/04/07 01:24:07;;;;;;;7.72;3.85;;;11.80;96.80;;;;;;5050490;28;20028;-72
2022/04/07 01:26:37;;;;;;;7.10;3.38;;;11.90;97.00;;;;;;5050141;28;20033;-72
2022/04/07 01:29:03;;;;;;;5.82;3.42;;;11.80;96.90;;;;;;5050356;28;20036;-72
2022/04/07 01:31:29;;;;;;;11.13;3.95;;;11.80;97.00;;;;;;5050884;28;20442;-72
2022/04/07 01:33:57;;;;;;;5.03;2.65;;;11.90;96.90;;;;;;5050214;28;20068;-71
2022/04/07 01:36:23;;;;;;;;;;;11.70;96.90;;;;;;5064891;28;20032;-72
2022/04/07 01:38:49;;;;;;;4.38;2.60;;;11.70;96.70;;;;;;5073901;28;20346;-71
2022/04/07 01:41:15;;;;;;;5.68;2.70;;;11.70;96.80;;;;;;5073622;28;20075;-73
2022/04/07 01:43:42;;;;;;;3.17;2.13;;;11.70;97.00;;;;;;5073633;28;20449;-70
2022/04/07 01:46:12;;;;;;;5.05;2.70;;;11.70;97.00;;;;;;5074418;28;20540;-72
2022/04/07 01:48:38;;;;;;;7.32;2.22;;;11.70;97.00;;;;;;5073464;28;20032;-73
2022/04/07 01:51:08;;;;;;;6.80;2.45;;;11.60;97.00;;;;;;5073572;28;20063;-73
2022/04/07 01:53:34;;;;;;;4.38;2.17;;;11.60;97.10;;;;;;5072493;28;20032;-74
2022/04/07 01:56:04;;;;;;;3.70;2.05;;;11.60;97.20;;;;;;5073379;28;20033;-72
2022/04/07 01:58:31;;;;;;;8.68;2.80;;;11.60;97.20;;;;;;5073857;28;20132;-72
2022/04/07 02:00:56;;;;;;;3.83;2.13;;;11.60;97.20;;;;;;5073478;28;20454;-73
2022/04/07 02:03:22;;;;;;;6.03;2.15;;;11.60;97.30;;;;;;5073338;28;20025;-72
2022/04/07 02:05:47;;;;;;;4.55;1.90;;;11.50;97.30;;;;;;5073545;28;20229;-73
2022/04/07 02:08:13;;;;;;;3.97;2.20;;;11.60;97.40;;;;;;5073119;28;20098;-73
2022/04/07 02:10:38;;;;;;;4.45;1.92;;;11.60;97.50;;;;;;5073141;28;20028;-71
2022/04/07 02:13:04;;;;;;;4.50;2.22;;;11.50;97.90;;;;;;5073943;28;20027;-71
2022/04/07 02:15:30;;;;;;;4.95;2.25;;;11.50;97.90;;;;;;5072992;28;20035;-72
2022/04/07 02:17:55;;;;;;;4.82;2.35;;;11.50;98.00;;;;;;5072997;28;20025;-71
2022/04/07 02:20:21;;;;;;;6.60;2.22;;;11.50;98.10;;;;;;5072964;28;20082;-73
2022/04/07 02:22:47;;;;;;;4.07;2.20;;;11.50;98.20;;;;;;5073163;28;20107;-72
2022/04/07 02:25:12;;;;;;;5.10;2.28;;;11.40;98.30;;;;;;5073435;28;20051;-72
2022/04/07 02:27:40;;;;;;;6.07;2.42;;;11.40;98.40;;;;;;5073019;28;20478;-72
2022/04/07 02:30:14;;;;;;;3.47;2.20;;;11.40;98.70;;;;;;5073017;28;20035;-73
2022/04/07 02:32:41;;;;;;;4.30;2.05;;;11.30;98.90;;;;;;5073096;28;20024;-73
2022/04/07 02:35:08;;;;;;;6.70;2.63;;;11.30;98.80;;;;;;5071635;28;20028;-72
2022/04/07 02:37:34;;;;;;;4.18;2.30;;;11.30;98.90;;;;;;5073243;28;20013;-72
2022/04/07 02:40:00;;;;;;;3.67;2.28;;;11.20;98.90;;;;;;5072877;28;20032;-73
2022/04/07 02:42:26;;;;;;;3.75;2.10;;;11.20;98.80;;;;;;5072518;28;20033;-72
2022/04/07 02:44:51;;;;;;;2.85;1.73;;;11.10;98.80;;;;;;5072702;28;20033;-72
2022/04/07 02:47:17;;;;;;;5.68;2.17;;;11.10;98.80;;;;;;5072164;28;20075;-73
2022/04/07 02:49:43;;;;;;;3.58;1.83;;;11.20;98.80;;;;;;5072090;28;20103;-71
2022/04/07 02:52:10;;;;;;;5.78;2.30;;;11.10;98.70;;;;;;5073003;28;20033;-72
2022/04/07 02:54:37;;;;;;;2.90;1.48;;;11.10;98.40;;;;;;5072551;28;20029;-71
2022/04/07 02:57:03;;;;;;;4.97;1.42;;;11.10;98.20;;;;;;5072360;28;20104;-71
2022/04/07 02:59:29;;;;;;;3.60;1.38;;;11.10;98.20;;;;;;5072296;28;20032;-72
2022/04/07 03:01:56;;;;;;;2.38;1.50;;;11.10;98.20;;;;;;5072780;28;20361;-71
2022/04/07 03:04:25;;;;;;;2.83;1.23;;;11.10;98.20;;;;;;5072552;28;20466;-71
2022/04/07 03:06:52;;;;;;;3.05;1.35;;;11.10;98.00;;;;;;5072317;28;20043;-73
2022/04/07 03:09:19;;;;;;;4.88;1.30;;;11.10;97.80;;;;;;5072510;28;20032;-72
2022/04/07 03:11:46;;;;;;;2.83;1.33;;;11.20;98.10;;;;;;5072340;28;20032;-73
2022/04/07 03:14:12;;;;;;;4.25;1.17;;;11.20;97.80;;;;;;5072202;28;20044;-72
2022/04/07 03:16:38;;;;;;;5.82;1.20;;;11.20;97.80;;;;;;5072389;28;20059;-70
2022/04/07 03:19:03;;;;;;;7.65;1.50;;;11.20;97.70;;;;;;5072094;28;20068;-73
2022/04/07 03:21:29;;;;;;;4.60;1.42;;;11.20;97.70;;;;;;5071885;28;20036;-72
2022/04/07 03:23:54;;;;;;;3.75;1.20;;;11.20;97.70;;;;;;5072011;28;20048;-72
2022/04/07 03:26:20;;;;;;;4.68;1.00;;;11.10;97.60;;;;;;5071813;28;20025;-72
2022/04/07 03:28:45;;;;;;;4.55;1.15;;;11.20;97.70;;;;;;5070725;28;20446;-72
2022/04/07 03:31:11;;;;;;;1.75;0.80;;;11.10;97.50;;;;;;5072165;28;20033;-70
2022/04/07 03:33:37;;;;;;;5.22;1.40;;;11.10;97.50;;;;;;5071987;28;20067;-72
2022/04/07 03:36:05;;;;;;;2.53;1.10;;;11.10;97.40;;;;;;5070519;28;20077;-73
2022/04/07 03:38:31;;;;;;;1.65;0.95;;;11.10;97.30;;;;;;5071617;28;20028;-73
2022/04/07 03:40:56;;;;;;;1.77;0.95;;;11.20;97.20;;;;;;5071651;28;20086;-74
2022/04/07 03:43:22;;;;;;;10.02;1.25;;;11.20;97.10;;;;;;5071892;28;20039;-72
2022/04/07 03:45:48;;;;;;;4.15;1.33;;;11.20;97.10;;;;;;5071629;28;20057;-72
2022/04/07 03:48:13;;;;;;;5.68;1.30;;;11.20;97.10;;;;;;5071065;28;20374;-72
2022/04/07 03:50:40;;;;;;;4.65;0.93;;;11.20;96.70;;;;;;5071362;28;20037;-72
2022/04/07 03:53:06;;;;;;;4.67;1.40;;;11.30;96.70;;;;;;5071348;28;20482;-72
2022/04/07 03:55:31;;;;;;;3.72;1.00;;;11.30;96.80;;;;;;5071541;28;20058;-73
2022/04/07 03:57:57;;;;;;;5.75;1.33;;;11.30;96.40;;;;;;5070254;28;20094;-73
2022/04/07 04:00:23;;;;;;;3.15;1.00;;;11.30;96.40;;;;;;5071162;28;20020;-72
2022/04/07 04:02:50;;;;;;;3.92;1.50;;;11.40;96.30;;;;;;5071138;28;20348;-71
2022/04/07 04:05:17;;;;;;;7.63;1.17;;;11.30;96.20;;;;;;5071293;28;20102;-73
2022/04/07 04:07:42;;;;;;;2.97;1.15;;;11.40;96.20;;;;;;5070961;28;20354;-73
2022/04/07 04:10:08;;;;;;;3.97;0.90;;;11.40;96.10;;;;;;5071523;28;20040;-72
2022/04/07 04:12:34;;;;;;;5.93;1.17;;;11.40;96.10;;;;;;5071068;28;20024;-72
2022/04/07 04:15:01;;;;;;;5.80;1.27;;;11.30;96.10;;;;;;5071141;28;20036;-72
2022/04/07 04:17:30;;;;;;;4.93;0.93;;;11.30;96.20;;;;;;5069822;28;20369;-71
2022/04/07 04:19:55;;;;;;;6.78;1.58;;;11.30;96.20;;;;;;5071283;28;20038;-72
2022/04/07 04:22:21;;;;;;;3.75;1.13;;;11.40;96.20;;;;;;5071268;28;20025;-71
2022/04/07 04:24:48;;;;;;;5.38;1.20;;;11.30;96.30;;;;;;5070778;28;20032;-72
2022/04/07 04:27:14;;;;;;;2.85;1.17;;;11.40;96.30;;;;;;5070893;28;20386;-71
2022/04/07 04:29:41;;;;;;;4.60;1.05;;;11.30;96.20;;;;;;5070942;28;20028;-72
2022/04/07 04:32:07;;;;;;;2.15;1.27;;;11.30;96.10;;;;;;5070818;28;20464;-73
2022/04/07 04:34:32;;;;;;;2.78;1.05;;;11.40;96.20;;;;;;5071583;28;20437;-73
2022/04/07 04:36:58;;;;;;;3.47;1.30;;;11.40;96.20;;;;;;5070820;28;20039;-73
2022/04/07 04:39:24;;;;;;;5.22;1.20;;;11.40;96.10;;;;;;5070821;28;20366;-72
2022/04/07 04:41:50;;;;;;;3.80;1.10;;;11.40;96.10;;;;;;5070744;28;20466;-72
2022/04/07 04:44:15;;;;;;;5.75;1.30;;;11.40;96.20;;;;;;5070727;28;20025;-72
2022/04/07 04:46:41;;;;;;;7.10;1.38;;;11.40;96.20;;;;;;5070479;28;20041;-72
2022/04/07 04:49:07;;;;;;;4.82;1.30;;;11.40;96.10;;;;;;5070961;28;20009;-71
2022/04/07 04:51:32;;;;;;;3.10;0.90;;;11.40;96.10;;;;;;5070582;28;20040;-73
2022/04/07 04:53:58;;;;;;;7.07;1.52;;;11.40;96.00;;;;;;5070719;28;20489;-72
2022/04/07 04:56:23;;;;;;;2.63;0.90;;;11.60;96.00;;;;;;5070558;28;20031;-71
2022/04/07 04:58:49;;;;;;;2.65;1.15;;;11.40;95.90;;;;;;5070642;28;20379;-71
2022/04/07 05:01:15;;;;;;;3.97;1.00;;;11.50;95.90;;;;;;5070814;28;20107;-71
2022/04/07 05:03:40;;;;;;;4.95;1.23;;;11.40;96.00;;;;;;5070366;28;20028;-72
2022/04/07 05:06:06;;;;;;;4.82;0.93;;;11.50;95.80;;;;;;5070551;28;20115;-71
2022/04/07 05:08:31;;;;;;;4.50;0.90;;;11.50;95.80;;;;;;5069425;28;20035;-72
2022/04/07 05:10:57;;;;;;;2.00;0.93;;;11.50;95.70;;;;;;5070960;28;20421;-72
2022/04/07 05:13:23;;;;;;;2.75;0.80;;;11.50;95.70;;;;;;5074582;28;20026;-72
2022/04/07 05:15:48;;;;;;;4.05;1.10;;;11.50;95.70;;;;;;5074399;28;20024;-71
2022/04/07 05:18:14;;;;;;;5.20;0.93;;;11.50;95.80;;;;;;5074270;28;20051;-71
2022/04/07 05:20:39;;;;;;;3.45;0.90;;;11.50;95.60;;;;;;5074278;28;20060;-71
2022/04/07 05:23:05;;;;;;;1.33;0.80;;;11.50;96.00;;;;;;5074226;28;20117;-72
2022/04/07 05:25:30;;;;;;;4.85;0.95;;;11.60;95.60;;;;;;5074721;28;20449;-73
2022/04/07 05:27:56;;;;;;;2.63;0.80;;;11.60;95.60;;;;;;5074209;28;20032;-73
2022/04/07 05:30:22;;;;;;;4.80;1.05;;;11.60;95.60;;;;;;5073684;28;20066;-73
2022/04/07 05:32:48;;;;;;;4.38;0.80;;;11.60;95.40;;;;;;5073932;28;20099;-73
2022/04/07 05:35:15;;;;;;;4.00;0.93;;;11.60;95.40;;;;;;5073678;28;20016;-73
2022/04/07 05:37:42;;;;;;;6.68;1.00;;;11.70;95.40;;;;;;5073612;28;20099;-72
2022/04/07 05:40:10;;;;;;;2.05;0.70;;;11.70;95.30;;;;;;5073931;28;20463;-73
2022/04/07 05:42:36;;;;;;;4.10;0.93;;;11.70;95.20;;;;;;5072679;28;20040;-72
2022/04/07 05:45:03;;;;;;;8.82;1.38;;;11.70;95.10;;;;;;5073598;28;20037;-73
2022/04/07 05:47:29;;;;;;;10.50;1.80;;;11.70;95.10;;;;;;5073255;28;20040;-72
2022/04/07 05:49:55;;;;;;;2.17;0.70;;;11.70;95.00;;;;;;5073399;28;20427;-73
2022/04/07 05:52:21;;;;;;;1.80;0.80;;;11.80;94.90;;;;;;5073898;28;20642;-72
2022/04/07 05:54:47;;;;;;;2.25;0.85;;;11.80;94.80;;;;;;5073693;28;20478;-71
2022/04/07 05:57:12;;;;;;;4.72;1.20;;;11.90;94.80;;;;;;5060126;28;20332;-72
2022/04/07 05:59:38;;;;;;;6.07;1.30;;;11.90;94.70;;;;;;5053440;28;20287;-73
2022/04/07 06:02:04;;;;;;;2.83;1.00;;;11.90;94.50;;;;;;5052120;28;20075;-72
2022/04/07 06:04:29;;;;;;;3.67;1.02;;;11.90;94.50;;;;;;5053700;28;20086;-72
2022/04/07 06:06:55;;;;;;;3.35;0.80;;;12.00;94.50;;;;;;5053550;28;20025;-72
2022/04/07 06:09:22;;;;;;;4.32;1.13;;;12.00;94.40;;;;;;5053074;28;20665;-73
2022/04/07 06:11:47;;;;;;;3.33;0.90;;;12.00;94.20;;;;;;5053082;28;20040;-73
2022/04/07 06:14:13;;;;;;;5.70;1.05;;;12.00;94.10;;;;;;5053128;28;20224;-75
2022/04/07 06:16:38;;;;;;;3.13;0.73;;;12.10;94.10;;;;;;5053071;28;20108;-72
2022/04/07 06:19:04;;;;;;;5.68;1.40;;;12.10;93.90;;;;;;5053586;28;20033;-72
2022/04/07 06:21:30;;;;;;;5.05;1.05;;;12.20;93.70;;;;;;5053155;28;20460;-73
2022/04/07 06:23:57;;;;;;;7.80;1.00;;;12.20;93.50;;;;;;5051689;28;20041;-73
2022/04/07 06:26:23;;;;;;;6.57;2.05;;;12.20;93.60;;;;;;5051983;28;20037;-74
2022/04/07 06:28:49;;;;;;;3.45;0.90;;;12.20;93.50;;;;;;5051950;28;20029;-73
2022/04/07 06:31:14;;;;;;;4.10;0.98;;;12.20;93.20;;;;;;5053340;28;20028;-73
2022/04/07 06:33:40;;;;;;;6.03;2.42;;;12.30;93.30;;;;;;5052663;28;20490;-72
2022/04/07 06:36:06;;;;;;;9.35;1.23;;;12.30;93.20;;;;;;5051417;28;20049;-74
2022/04/07 06:38:33;;;;;;;5.35;0.65;;;12.30;93.20;;;;;;5051707;28;20094;-71
2022/04/07 06:40:59;;;;;;;5.55;1.00;;;12.40;93.20;;;;;;5051357;28;20088;-71
2022/04/07 06:43:24;;;;;;;5.93;0.80;;;12.50;93.00;;;;;;5053115;28;20063;-72
2022/04/07 06:45:50;;;;;;;9.35;1.85;;;12.50;93.00;;;;;;5052586;28;20061;-71
2022/04/07 06:48:15;;;;;;;3.05;1.02;;;12.60;92.60;;;;;;5051941;28;20522;-71
2022/04/07 06:50:41;;;;;;;3.05;0.70;;;12.60;92.60;;;;;;5052285;28;20068;-72
2022/04/07 06:53:07;;;;;;;3.38;1.35;;;12.60;92.50;;;;;;5052371;28;20091;-72
2022/04/07 06:55:32;;;;;;;5.30;0.80;;;12.60;92.50;;;;;;5052595;28;20389;-72
2022/04/07 06:58:04;;;;;;;4.63;0.75;;;12.60;92.40;;;;;;5052182;28;20021;-71
2022/04/07 07:00:34;;;;;;;3.67;0.88;;;12.60;92.50;;;;;;5052208;28;20041;-76
2022/04/07 07:03:02;;;;;;;5.57;0.90;;;12.60;92.50;;;;;;5052259;28;20055;-77
2022/04/07 07:05:30;;;;;;;2.33;0.95;;;12.60;92.50;;;;;;5052307;28;20036;-76
2022/04/07 07:07:56;;;;;;;3.38;0.65;;;12.60;92.50;;;;;;5051839;28;20075;-70
2022/04/07 07:10:23;;;;;;;3.55;0.73;;;12.60;92.50;;;;;;5052188;28;20032;-73
2022/04/07 07:12:50;;;;;;;4.90;0.57;;;12.60;92.60;;;;;;5052198;28;20033;-71
2022/04/07 07:15:15;;;;;;;5.32;0.90;;;12.60;92.70;;;;;;5051737;28;20266;-71
2022/04/07 07:17:41;;;;;;;1.83;0.80;;;12.60;92.70;;;;;;5051905;28;20031;-72
2022/04/07 07:20:10;;;;;;;5.05;0.73;;;12.60;92.70;;;;;;5051893;28;20032;-71
2022/04/07 07:22:40;;;;;;;4.43;0.98;;;12.60;92.70;;;;;;5052007;28;20020;-71
2022/04/07 07:25:07;;;;;;;3.95;1.40;;;12.60;92.70;;;;;;5051856;28;20105;-77
2022/04/07 07:27:40;;;;;;;1.60;0.60;;;12.60;92.80;;;;;;5051879;28;20481;-76
2022/04/07 07:30:10;;;;;;;3.00;0.75;;;12.70;92.80;;;;;;5051686;28;20110;-77
2022/04/07 07:32:41;;;;;;;6.30;0.80;;;12.70;92.80;;;;;;5051525;28;20105;-71
2022/04/07 07:35:08;;;;;;;1.10;0.57;;;12.80;92.80;;;;;;5051356;28;20379;-73
2022/04/07 07:37:34;;;;;;;0.93;0.50;;;12.80;92.70;;;;;;5050134;28;20040;-71
2022/04/07 07:40:05;;;;;;;2.45;0.50;;;12.90;92.60;;;;;;5052351;28;20037;-80
2022/04/07 07:42:30;;;;;;;0.47;0.47;;;12.90;92.80;;;;;;5050872;28;20703;-77
2022/04/07 07:44:56;;;;;;;4.63;0.77;;;12.90;92.80;;;;;;5051823;28;20068;-77
2022/04/07 07:47:21;;;;;;;1.92;0.77;;;12.90;92.80;;;;;;5051042;28;20048;-79
2022/04/07 07:49:47;;;;;;;4.75;0.52;;;12.90;92.80;;;;;;5051395;28;20025;-77
2022/04/07 07:52:13;;;;;;;2.97;1.25;;;12.90;92.80;;;;;;5051666;28;20029;-71
2022/04/07 07:54:38;;;;;;;4.15;1.70;;;12.90;93.00;;;;;;5050097;28;20044;-71
2022/04/07 07:57:04;;;;;;;1.65;0.38;;;12.90;93.10;;;;;;5051043;28;20029;-75
2022/04/07 07:59:29;;;;;;;1.20;0.32;;;12.80;93.30;;;;;;5051234;28;20025;-71
2022/04/07 08:01:55;;;;;;;1.38;0.45;;;12.80;93.50;;;;;;5051320;28;20033;-71
2022/04/07 08:04:21;;;;;;;0.50;0.38;;;12.80;93.70;;;;;;5050491;28;20459;-72
2022/04/07 08:06:46;;;;;;;1.63;0.45;;;12.90;94.10;;;;;;5051200;28;20352;-71
2022/04/07 08:09:14;;;;;;;1.58;0.55;;;12.80;94.30;;;;;;5051226;28;20530;-71
2022/04/07 08:11:41;;;;;;;1.77;0.57;;;12.70;94.30;;;;;;5051058;28;20048;-71
2022/04/07 08:14:06;;;;;;;2.47;0.80;;;12.70;94.70;;;;;;5049967;28;20053;-71
2022/04/07 08:16:32;;;;;;;1.42;0.60;;;12.70;94.90;;;;;;5051372;28;20410;-70
2022/04/07 08:18:58;;;;;;;1.83;0.73;;;12.70;95.30;;;;;;5050000;28;20501;-70
2022/04/07 08:21:24;;;;;;;1.08;0.40;;;12.60;95.80;;;;;;5048902;28;20026;-70
2022/04/07 08:23:49;;;;;;;0.90;0.50;;;12.60;96.00;;;;;;5051168;28;20033;-71
2022/04/07 08:26:15;;;;;;;3.72;0.57;;;12.50;96.30;;;;;;5050792;28;20059;-70
2022/04/07 08:28:41;;;;;;;0.73;0.55;;;12.50;96.60;;;;;;5049829;28;20021;-70
2022/04/07 08:31:07;;;;;;;0.77;0.60;;;12.50;96.70;;;;;;5051280;28;20028;-69
2022/04/07 08:33:32;;;;;;;1.75;0.88;;;12.50;96.80;;;;;;5050409;28;20108;-72
2022/04/07 08:35:58;;;;;;;3.05;1.50;;;12.50;96.80;;;;;;5049825;28;20029;-69
2022/04/07 08:38:24;;;;;;;1.70;0.82;;;12.50;97.00;;;;;;5050623;28;20479;-69
2022/04/07 08:40:51;;;;;;;1.70;1.02;;;12.50;97.10;;;;;;5049643;28;20529;-69
2022/04/07 08:43:17;;;;;;;2.90;0.80;;;12.50;97.30;;;;;;5051144;28;20028;-69
2022/04/07 08:45:44;;;;;;;2.65;0.40;;;12.50;97.50;;;;;;5050979;28;20390;-69
2022/04/07 08:48:11;;;;;;;1.88;0.55;;;12.40;97.70;;;;;;5053511;28;20473;-75
2022/04/07 08:50:39;;;;;;;1.40;0.60;;;12.40;97.90;;;;;;5054684;28;20190;-76
2022/04/07 08:53:05;;;;;;;1.52;0.63;;;12.40;98.20;;;;;;5054827;28;20025;-71
2022/04/07 08:55:31;;;;;;;3.20;0.50;;;12.40;98.60;;;;;;5055054;28;20125;-74
2022/04/07 08:57:56;;;;;;;2.83;0.50;;;12.30;98.50;;;;;;5054567;28;20432;-72
2022/04/07 09:00:22;;;;;;;0.65;0.50;;;12.30;98.60;;;;;;5054489;28;20186;-71
2022/04/07 09:02:48;;;;;;;2.50;1.33;;;12.30;98.90;;;;;;5054294;28;20036;-70
2022/04/07 09:05:13;;;;;;;5.05;1.70;;;12.20;99.00;;;;;;5054414;28;20055;-72
2022/04/07 09:07:46;;;;;;;1.85;1.00;;;12.20;99.10;;;;;;5053351;28;20029;-74
2022/04/07 09:10:11;;;;;;;2.63;0.85;;;12.20;99.30;;;;;;5054597;28;20081;-71
2022/04/07 09:12:39;;;;;;;0.40;0.40;;;12.20;99.50;;;;;;5054203;28;20429;-74
2022/04/07 09:15:06;;;;;;;4.28;0.85;;;12.20;99.50;;;;;;5054123;28;20615;-78
2022/04/07 09:17:47;;;;;;;0.70;0.55;;;12.20;99.70;;;;;;5054367;28;20028;-72
2022/04/07 09:20:13;;;;;;;0.90;0.60;;;12.20;99.80;;;;;;5053886;28;20040;-70
2022/04/07 09:22:38;;;;;;;1.15;0.45;;;12.20;99.60;;;;;;5054347;28;20025;-75
2022/04/07 09:25:05;;;;;;;3.13;0.50;;;12.20;99.60;;;;;;5054455;28;20397;-70
2022/04/07 09:27:31;;;;;;;1.45;0.80;;;12.30;99.80;;;;;;5054424;28;20071;-74
2022/04/07 09:29:57;;;;;;;2.45;0.68;;;12.20;99.80;;;;;;5052914;28;20053;-74
2022/04/07 09:32:25;;;;;;;1.65;0.70;;;12.20;99.90;;;;;;5054060;28;20033;-72
2022/04/07 09:34:59;;;;;;;0.77;0.63;;;12.20;99.90;;;;;;5053971;28;20037;-72
2022/04/07 09:37:29;;;;;;;1.17;0.75;;;12.20;99.90;;;;;;5054688;28;20163;-72
2022/04/07 09:40:14;;;;;;;1.23;0.50;;;12.10;99.90;;;;;;5053050;28;20033;-73
2022/04/07 09:42:43;;;;;;;0.70;0.52;;;12.10;99.90;;;;;;5053792;28;20033;-72
2022/04/07 09:45:13;;;;;;;1.58;0.55;;;12.10;99.90;;;;;;5053897;28;20048;-73
2022/04/07 09:47:45;;;;;;;1.70;0.40;;;12.10;99.90;;;;;;5053510;28;20029;-73
2022/04/07 09:50:29;;;;;;;4.13;0.50;;;12.00;99.90;;;;;;5053547;28;20032;-72
2022/04/07 09:53:03;;;;;;;9.07;0.50;;;12.00;99.90;;;;;;5053389;28;20017;-73
2022/04/07 09:55:43;;;;;;;2.30;0.40;;;12.00;99.90;;;;;;5053096;28;20606;-73
2022/04/07 09:58:12;;;;;;;2.72;0.70;;;12.00;99.90;;;;;;5053319;28;20029;-71
2022/04/07 10:00:39;;;;;;;0.88;0.70;;;12.00;99.90;;;;;;5053568;28;20035;-71
2022/04/07 10:03:05;;;;;;;1.92;1.25;;;12.10;99.90;;;;;;5053281;28;20474;-71
2022/04/07 10:05:31;;;;;;;3.10;1.52;;;12.00;99.90;;;;;;5053150;28;20037;-77
2022/04/07 10:07:57;;;;;;;1.20;0.52;;;12.00;99.90;;;;;;5053259;28;20082;-71
2022/04/07 10:10:24;;;;;;;0.50;0.40;;;12.00;99.90;;;;;;5053376;28;20521;-70
2022/04/07 10:12:51;;;;;;;0.68;0.50;;;12.10;99.90;;;;;;5052158;28;20040;-73
2022/04/07 10:15:17;;;;;;;0.43;0.20;;;12.10;99.90;;;;;;5052638;28;20509;-72
2022/04/07 10:17:43;;;;;;;1.95;0.50;;;12.10;99.90;;;;;;5052990;28;20044;-75
2022/04/07 10:20:12;;;;;;;1.17;0.40;;;12.10;99.90;;;;;;5053041;28;20029;-72
2022/04/07 10:23:00;;;;;;;1.08;0.40;;;12.20;99.90;;;;;;5053203;28;20040;-75
2022/04/07 10:25:27;;;;;;;0.77;0.40;;;12.30;99.90;;;;;;5053360;28;20068;-74
2022/04/07 10:27:57;;;;;;;2.55;1.33;;;12.30;99.90;;;;;;5052769;28;20053;-72
2022/04/07 10:30:23;;;;;;;1.08;0.70;;;12.40;99.90;;;;;;5052438;28;20048;-71
2022/04/07 10:32:52;;;;;;;3.63;0.73;;;12.30;99.90;;;;;;5052873;28;20062;-74
2022/04/07 10:35:28;;;;;;;0.82;0.43;;;12.30;99.90;;;;;;5052587;28;20040;-78
2022/04/07 10:37:55;;;;;;;3.78;0.60;;;12.20;99.60;;;;;;5051421;28;20051;-75
2022/04/07 10:40:49;;;;;;;0.75;0.38;;;10.80;97.90;;;;;;5053250;28;20036;-76
2022/04/07 10:43:14;;;;;;;0.50;0.30;;;10.00;97.80;;;;;;5052647;28;20056;-76
2022/04/07 10:45:46;;;;;;;1.83;0.40;;;9.30;98.90;;;;;;5052393;28;20032;-73
2022/04/07 10:48:19;;;;;;;2.63;0.47;;;9.20;99.30;;;;;;5052356;28;20045;-74
2022/04/07 10:50:50;;;;;;;3.13;0.50;;;9.20;99.70;;;;;;5052380;28;20139;-73
2022/04/07 10:53:20;;;;;;;2.30;0.65;;;8.90;99.90;;;;;;5051260;28;20119;-83
2022/04/07 10:55:57;;;;;;;2.13;0.65;;;8.90;99.90;;;;;;5052406;28;20433;-72
2022/04/07 10:58:48;;;;;;;3.00;0.35;;;9.00;99.90;;;;;;5052662;28;20022;-74
2022/04/07 11:01:29;;;;;;;0.90;0.50;;;9.10;99.90;;;;;;5052189;28;20033;-75
2022/04/07 11:04:25;;;;;;;12.02;1.20;;;9.00;99.90;;;;;;5052094;28;20218;-76
2022/04/07 11:07:11;;;;;;;0.98;0.40;;;9.10;99.90;;;;;;5052277;28;20347;-73
2022/04/07 11:09:55;;;;;;;1.20;0.40;;;9.10;99.90;;;;;;5051339;28;20025;-73
2022/04/07 11:12:32;;;;;;;5.50;0.50;;;9.20;99.70;;;;;;5051940;28;20040;-73
2022/04/07 11:15:01;;;;;;;2.22;0.85;;;9.40;99.70;;;;;;5050760;28;20526;-73
2022/04/07 11:17:33;;;;;;;3.78;0.93;;;9.40;99.70;;;;;;5051797;28;20044;-73
2022/04/07 11:20:18;;;;;;;1.42;0.40;;;9.40;99.80;;;;;;5051867;28;20048;-71
2022/04/07 11:22:49;;;;;;;1.38;0.68;;;9.60;99.80;;;;;;5055683;28;20044;-73
2022/04/07 11:25:19;;;;;;;5.85;0.80;;;9.70;99.90;;;;;;5051128;28;20025;-73
2022/04/07 11:27:47;;;;;;;3.20;0.98;;;9.80;99.40;;;;;;5051766;28;20120;-72
2022/04/07 11:30:13;;;;;;;2.03;1.13;;;9.70;99.50;;;;;;5058068;28;20121;-73
2022/04/07 11:33:14;;;;;;;3.67;1.75;;;9.90;99.60;;;;;;5071699;28;20112;-71
2022/04/07 11:35:40;;;;;;;6.22;2.95;;;9.90;99.20;;;;;;5071843;28;20064;-72
2022/04/07 11:38:05;;;;;;;0.73;0.55;;;10.10;98.90;;;;;;5071627;28;20056;-72
2022/04/07 11:40:31;;;;;;;26.60;11.05;;;10.00;98.50;;;;;;5071002;28;20036;-72
2022/04/07 11:42:58;;;;;;;4.53;1.05;;;10.20;98.90;;;;;;5071513;28;20041;-75
2022/04/07 11:45:30;;;;;;;3.85;0.68;;;10.20;98.50;;;;;;5071330;28;20182;-70
2022/04/07 11:47:56;;;;;;;0.52;0.30;;;10.30;98.60;;;;;;5070228;28;20101;-69
2022/04/07 11:50:21;;;;;;;2.95;0.55;;;10.30;98.20;;;;;;5071369;28;20123;-70
2022/04/07 11:52:49;;;;;;;0.57;0.30;;;10.40;98.30;;;;;;5071447;28;20025;-73
2022/04/07 11:55:24;;;;;;;;;;;10.50;98.10;;;;;;5072077;28;20475;-71
2022/04/07 11:57:58;;;;;;;5.68;3.58;;;10.60;98.20;;;;;;5071423;28;19916;-70
2022/04/07 12:00:32;;;;;;;9.40;4.65;;;10.60;97.80;;;;;;5070948;28;20439;-73
2022/04/07 12:03:02;;;;;;;1.33;0.90;;;10.90;98.10;;;;;;5071265;28;20063;-74
2022/04/07 12:05:30;;;;;;;7.07;0.98;;;11.00;97.50;;;;;;5069998;28;20040;-70
2022/04/07 12:08:05;;;;;;;;;;;11.10;98.00;;;;;;5071822;28;20111;-71
2022/04/07 12:10:31;;;;;;;1.23;0.90;;;11.10;97.50;;;;;;5071710;28;19916;-71
2022/04/07 12:12:57;;;;;;;2.85;1.02;;;11.30;97.40;;;;;;5071593;28;20029;-73
2022/04/07 12:15:24;;;;;;;3.63;1.10;;;11.60;98.30;;;;;;5070717;28;20029;-74
2022/04/07 12:18:08;;;;;;;0.73;0.30;;;11.90;97.60;;;;;;5070961;28;20105;-74
2022/04/07 12:20:38;;;;;;;0.77;0.43;;;12.20;97.50;;;;;;5068550;28;20029;-72
2022/04/07 12:23:14;;;;;;;2.05;0.93;;;12.50;97.20;;;;;;5070986;28;20458;-72
2022/04/07 12:25:41;;;;;;;2.50;0.63;;;12.50;96.50;;;;;;5070915;28;20147;-74
2022/04/07 12:28:15;;;;;;;3.67;0.60;;;12.60;96.30;;;;;;5070261;28;20024;-72
2022/04/07 12:30:55;;;;;;;2.38;0.52;;;12.70;95.70;;;;;;5070430;28;20434;-72
2022/04/07 12:33:44;;;;;;;2.38;1.02;;;12.60;95.30;;;;;;5070867;28;20033;-72
2022/04/07 12:36:15;;;;;;;1.55;0.40;;;12.80;95.60;;;;;;5071026;28;20097;-74
2022/04/07 12:38:57;;;;;;;2.70;0.60;;;12.60;94.00;;;;;;5071654;28;20025;-72
2022/04/07 12:41:22;;;;;;;1.35;0.60;;;12.80;94.70;;;;;;5071127;28;20021;-73
2022/04/07 12:43:51;;;;;;;2.05;0.55;;;12.70;93.80;;;;;;5070470;28;20655;-72
2022/04/07 12:46:20;;;;;;;1.88;0.60;;;12.80;93.60;;;;;;5071582;28;20013;-73
2022/04/07 12:49:06;;;;;;;3.60;0.80;;;12.80;93.70;;;;;;5070942;28;20482;-72
2022/04/07 12:51:34;;;;;;;1.70;0.90;;;12.90;93.60;;;;;;5070787;28;20040;-75